Language: 


Des rapports , des résumés tant et plus, au choix de chacun....


Données statistiques de la station
Quotidien Rapport Mars 8, 2017 Unités:  Métrique    Anglais   les deux
« Précédent Jour
Suivant Jour »
Quotidien Hebdomadaire Mensuel Annuel Actuel
  Haut: Bas: Moyen:
Température: 12.3 °C 0.0 °C 8.8 °C
Pt de rosée: 11.7 °C 2.0 °C 8.2 °C
Humidité: 98 % 0 % 96 %
Vitesse du vent: 41.4 km/h 0.0 km/h 16.3 km/h
Rafales: 45.1 km/h - -
Vent:- - SW
Pression: 1018.8 hPa 0.0 hPa -
Précipitation: 7.1 mm    
Historical Graphs
 
 
Données statistiques pour Mars 8, 2017
Heure Température Point de rosée Pression Vent Vitesse du vent Refales Humidité Pluie (taux horaire)
00:03 2.7 °C 2.0 °C 1018.8 hPa SSW 3.2 km/h 5.8 km/h 95 % 0.0 mm
00:08 2.8 °C 2.1 °C 1018.8 hPa South 4.3 km/h 6.1 km/h 95 % 0.0 mm
00:13 2.9 °C 2.2 °C 1018.8 hPa Calm   6.4 km/h 95 % 0.0 mm
00:18 2.9 °C 2.2 °C 1018.8 hPa SSW 5.8 km/h 7.6 km/h 95 % 0.0 mm
00:23 3.1 °C 2.3 °C 1018.8 hPa South 5.0 km/h 7.6 km/h 95 % 0.0 mm
00:28 3.1 °C 2.3 °C 1018.8 hPa South 3.5 km/h 7.6 km/h 95 % 0.0 mm
00:33 3.1 °C 2.6 °C 1018.8 hPa SSE 6.9 km/h 6.9 km/h 96 % 0.0 mm
00:38 3.2 °C 2.7 °C 1018.8 hPa South 4.3 km/h 9.3 km/h 96 % 0.0 mm
00:39 3.2 °C 2.7 °C 1018.8 hPa South 3.5 km/h 9.3 km/h 96 % 0.0 mm
00:44 3.2 °C 2.7 °C 1018.8 hPa SW 5.8 km/h 9.3 km/h 96 % 0.0 mm
00:49 3.2 °C 2.7 °C 1018.8 hPa South 5.8 km/h 6.9 km/h 96 % 0.0 mm
00:50 3.2 °C 2.7 °C 1018.8 hPa South 5.0 km/h 6.9 km/h 96 % 0.0 mm
00:55 3.2 °C 2.7 °C 1018.8 hPa SSE 5.5 km/h 6.4 km/h 96 % 0.0 mm
01:00 3.2 °C 2.7 °C 1018.8 hPa South 5.8 km/h 7.9 km/h 96 % 0.0 mm
01:05 3.2 °C 2.7 °C 1018.8 hPa South 8.7 km/h 8.7 km/h 96 % 0.0 mm
01:10 3.3 °C 2.8 °C 1018.2 hPa South 6.1 km/h 10.1 km/h 96 % 0.0 mm
01:15 3.4 °C 3.0 °C 1018.2 hPa SSW 7.9 km/h 10.1 km/h 97 % 0.0 mm
01:20 3.6 °C 3.1 °C 1018.2 hPa South 6.9 km/h 10.1 km/h 97 % 0.0 mm
01:25 3.6 °C 3.2 °C 1018.2 hPa South 7.9 km/h 10.1 km/h 97 % 0.0 mm
01:30 3.6 °C 3.2 °C 1018.2 hPa South 5.8 km/h 10.1 km/h 97 % 0.0 mm
01:35 3.7 °C 3.3 °C 1018.2 hPa South 6.4 km/h 10.1 km/h 97 % 0.0 mm
01:37 3.7 °C 3.3 °C 1018.2 hPa South 10.1 km/h 10.1 km/h 97 % 0.0 mm
01:42 3.8 °C 3.4 °C 1018.2 hPa South 6.4 km/h 12.6 km/h 97 % 0.0 mm
01:47 3.8 °C 3.4 °C 1018.2 hPa South 6.1 km/h 12.6 km/h 97 % 0.0 mm
01:52 3.9 °C 3.5 °C 1018.2 hPa South 10.1 km/h 13.7 km/h 97 % 0.0 mm
01:57 4.1 °C 3.7 °C 1018.2 hPa SSW 14.0 km/h 14.0 km/h 97 % 0.0 mm
02:02 0.0 °C 3.8 °C 0.0 hPa South 11.9 km/h 15.1 km/h 0 % 0.0 mm
02:07 4.3 °C 3.9 °C 1018.2 hPa SSW 8.7 km/h 15.1 km/h 97 % 0.0 mm
02:12 4.4 °C 4.0 °C 1016.8 hPa SSW 9.0 km/h 14.0 km/h 97 % 0.0 mm
02:17 4.4 °C 4.0 °C 1016.8 hPa South 6.9 km/h 14.0 km/h 97 % 0.0 mm
02:22 4.5 °C 4.1 °C 1016.8 hPa South 8.7 km/h 13.7 km/h 97 % 0.0 mm
02:27 4.6 °C 4.2 °C 1016.8 hPa South 6.9 km/h 14.3 km/h 97 % 0.0 mm
02:32 4.7 °C 4.3 °C 1016.8 hPa SSW 10.1 km/h 14.3 km/h 97 % 0.0 mm
02:37 4.7 °C 4.3 °C 1016.8 hPa South 9.7 km/h 13.7 km/h 97 % 0.0 mm
02:42 4.8 °C 4.4 °C 1016.1 hPa SSW 13.0 km/h 13.0 km/h 97 % 0.0 mm
02:47 4.9 °C 4.3 °C 1016.1 hPa South 10.1 km/h 13.0 km/h 96 % 0.0 mm
02:52 4.9 °C 4.3 °C 1016.1 hPa South 10.5 km/h 15.4 km/h 96 % 0.0 mm
02:57 5.0 °C 4.4 °C 1016.8 hPa SSW 14.0 km/h 22.7 km/h 96 % 0.0 mm
03:02 5.0 °C 4.3 °C 1016.8 hPa SSW 13.0 km/h 22.7 km/h 95 % 0.0 mm
03:07 5.0 °C 4.3 °C 1016.8 hPa South 9.7 km/h 14.0 km/h 95 % 0.0 mm
03:12 5.0 °C 4.1 °C 1016.1 hPa SSW 10.1 km/h 16.9 km/h 94 % 0.0 mm
03:17 5.0 °C 4.1 °C 1016.1 hPa South 11.9 km/h 16.9 km/h 94 % 0.0 mm
03:22 5.0 °C 3.9 °C 1016.1 hPa South 14.0 km/h 20.1 km/h 93 % 0.0 mm
03:27 5.1 °C 4.1 °C 1016.1 hPa South 9.3 km/h 20.9 km/h 93 % 0.0 mm
03:32 5.2 °C 4.0 °C 1016.1 hPa South 16.3 km/h 20.9 km/h 92 % 0.0 mm
03:37 5.2 °C 4.0 °C 1016.1 hPa South 10.8 km/h 20.6 km/h 92 % 0.0 mm
03:42 5.3 °C 3.9 °C 1016.1 hPa SSW 16.3 km/h 20.1 km/h 91 % 0.0 mm
03:47 5.4 °C 3.9 °C 1016.1 hPa South 16.6 km/h 20.1 km/h 90 % 0.0 mm
03:52 5.4 °C 3.9 °C 1016.1 hPa South 14.0 km/h 17.7 km/h 90 % 0.0 mm
03:57 5.4 °C 3.7 °C 1015.1 hPa South 17.2 km/h 17.7 km/h 89 % 0.0 mm
04:02 5.5 °C 3.7 °C 1015.1 hPa SSW 12.6 km/h 20.6 km/h 88 % 0.0 mm
04:07 5.5 °C 3.7 °C 1015.1 hPa SSE 11.6 km/h 20.6 km/h 88 % 0.0 mm
04:12 5.5 °C 3.7 °C 1015.1 hPa South 9.0 km/h 16.9 km/h 88 % 0.0 mm
04:17 5.5 °C 3.7 °C 1015.1 hPa South 14.0 km/h 15.4 km/h 88 % 0.0 mm
04:22 5.5 °C 3.8 °C 1015.1 hPa South 9.7 km/h 19.5 km/h 89 % 0.0 mm
04:27 5.6 °C 3.9 °C 1015.1 hPa South 10.1 km/h 19.5 km/h 89 % 0.0 mm
04:32 5.6 °C 4.1 °C 1015.1 hPa South 9.0 km/h 17.7 km/h 90 % 0.0 mm
04:37 5.7 °C 4.3 °C 1016.1 hPa South 10.1 km/h 17.2 km/h 91 % 0.0 mm
04:42 5.7 °C 4.5 °C 1016.1 hPa SSW 13.7 km/h 17.2 km/h 92 % 0.0 mm
04:47 5.8 °C 4.6 °C 1016.1 hPa South 9.3 km/h 23.3 km/h 92 % 0.0 mm
04:52 5.8 °C 4.7 °C 1015.1 hPa South 14.3 km/h 23.3 km/h 93 % 0.0 mm
04:57 5.9 °C 4.8 °C 1015.1 hPa South 16.6 km/h 18.3 km/h 93 % 0.0 mm
05:02 5.9 °C 5.0 °C 1015.1 hPa South 16.9 km/h 18.3 km/h 94 % 0.0 mm
05:07 5.9 °C 5.0 °C 1014.1 hPa South 15.4 km/h 19.8 km/h 94 % 0.0 mm
05:12 5.9 °C 5.2 °C 1014.1 hPa SSW 9.7 km/h 24.8 km/h 95 % 0.0 mm
05:17 5.9 °C 5.2 °C 1014.1 hPa SSW 10.1 km/h 24.8 km/h 95 % 0.0 mm
05:22 6.0 °C 5.4 °C 1014.1 hPa South 16.9 km/h 21.2 km/h 96 % 0.3 mm
05:27 6.0 °C 5.4 °C 1014.1 hPa SSW 16.3 km/h 21.2 km/h 96 % 0.3 mm
05:32 6.0 °C 5.4 °C 1014.1 hPa South 14.8 km/h 21.2 km/h 96 % 0.3 mm
05:37 6.0 °C 5.6 °C 1014.1 hPa South 19.8 km/h 21.2 km/h 97 % 0.3 mm
05:42 6.0 °C 5.6 °C 1014.1 hPa SSW 16.9 km/h 21.2 km/h 97 % 0.3 mm
05:47 6.0 °C 5.6 °C 1014.1 hPa South 14.3 km/h 21.2 km/h 97 % 0.3 mm
05:52 6.0 °C 5.6 °C 1013.1 hPa South 11.9 km/h 21.2 km/h 97 % 0.5 mm
05:57 6.0 °C 5.6 °C 1013.1 hPa South 20.1 km/h 20.9 km/h 97 % 0.5 mm
06:02 6.0 °C 5.6 °C 1013.1 hPa SSW 13.7 km/h 20.9 km/h 97 % 0.5 mm
06:07 6.0 °C 5.7 °C 1013.1 hPa South 13.7 km/h 20.1 km/h 98 % 0.8 mm
06:12 6.0 °C 5.7 °C 1013.1 hPa South 13.7 km/h 24.8 km/h 98 % 0.8 mm
06:17 6.0 °C 5.7 °C 1013.1 hPa SSW 14.0 km/h 24.8 km/h 98 % 0.8 mm
06:22 6.0 °C 5.7 °C 1012.1 hPa SSW 15.1 km/h 21.2 km/h 98 % 1.0 mm
06:27 6.1 °C 5.8 °C 1012.1 hPa South 14.0 km/h 21.2 km/h 98 % 1.3 mm
06:32 6.1 °C 5.8 °C 1012.1 hPa South 20.6 km/h 21.2 km/h 98 % 1.3 mm
06:37 6.1 °C 5.8 °C 1013.1 hPa SSW 20.6 km/h 20.6 km/h 98 % 1.5 mm
06:42 6.2 °C 5.9 °C 1013.1 hPa SSE 15.1 km/h 20.6 km/h 98 % 1.8 mm
06:47 6.2 °C 5.9 °C 1013.1 hPa SW 10.1 km/h 25.9 km/h 98 % 1.8 mm
06:52 6.3 °C 6.0 °C 1013.1 hPa SSW 9.7 km/h 27.4 km/h 98 % 1.8 mm
06:57 6.3 °C 6.0 °C 1013.1 hPa South 19.1 km/h 28.8 km/h 98 % 1.8 mm
07:02 6.4 °C 6.1 °C 1013.1 hPa SSW 14.0 km/h 28.8 km/h 98 % 1.8 mm
07:07 6.4 °C 6.1 °C 1013.1 hPa South 15.8 km/h 28.5 km/h 98 % 1.5 mm
07:12 6.4 °C 6.1 °C 1013.1 hPa SSW 16.9 km/h 20.9 km/h 98 % 1.8 mm
07:17 6.4 °C 6.2 °C 1013.1 hPa SSW 11.9 km/h 27.0 km/h 98 % 2.0 mm
07:22 6.4 °C 6.2 °C 1012.1 hPa South 9.3 km/h 27.0 km/h 98 % 1.8 mm
07:27 6.4 °C 6.2 °C 1012.1 hPa SW 15.4 km/h 24.5 km/h 98 % 1.5 mm
07:32 6.4 °C 6.2 °C 1012.1 hPa SSW 15.4 km/h 24.5 km/h 98 % 1.5 mm
07:37 6.6 °C 6.3 °C 1013.1 hPa SW 16.9 km/h 25.3 km/h 98 % 1.5 mm
07:42 6.6 °C 6.3 °C 1013.1 hPa SSW 21.6 km/h 25.3 km/h 98 % 1.3 mm
07:47 6.6 °C 6.3 °C 1013.1 hPa SSW 11.6 km/h 23.3 km/h 98 % 1.5 mm
07:52 6.6 °C 6.3 °C 1013.1 hPa WSW 10.5 km/h 19.5 km/h 98 % 1.3 mm
07:57 6.7 °C 6.4 °C 1013.1 hPa SSW 19.8 km/h 19.8 km/h 98 % 1.3 mm
08:02 6.7 °C 6.4 °C 1013.1 hPa SSW 9.7 km/h 19.8 km/h 98 % 1.5 mm
08:07 6.7 °C 6.4 °C 1013.1 hPa SSW 16.6 km/h 20.1 km/h 98 % 1.0 mm
08:12 6.8 °C 6.4 °C 1013.1 hPa SW 16.6 km/h 24.5 km/h 98 % 1.0 mm
08:17 6.8 °C 6.4 °C 1013.1 hPa SSW 19.8 km/h 24.5 km/h 98 % 0.8 mm
08:22 6.8 °C 6.6 °C 1013.1 hPa SSW 13.7 km/h 22.7 km/h 98 % 0.8 mm
08:27 6.8 °C 6.6 °C 1013.1 hPa SW 16.6 km/h 22.7 km/h 98 % 0.8 mm
08:32 6.8 °C 6.6 °C 1013.1 hPa SW 9.3 km/h 20.1 km/h 98 % 0.5 mm
08:37 6.9 °C 6.7 °C 1013.1 hPa SSW 14.0 km/h 16.6 km/h 98 % 0.5 mm
08:42 7.1 °C 6.8 °C 1013.1 hPa WSW 14.3 km/h 20.6 km/h 98 % 0.5 mm
08:47 7.2 °C 6.8 °C 1013.1 hPa SW 19.8 km/h 20.6 km/h 98 % 0.3 mm
08:52 7.3 °C 6.9 °C 1013.1 hPa SW 12.6 km/h 20.6 km/h 98 % 0.3 mm
08:57 7.3 °C 7.1 °C 1013.1 hPa South 15.4 km/h 23.0 km/h 98 % 0.3 mm
09:02 7.3 °C 7.1 °C 1013.1 hPa SSW 9.7 km/h 23.0 km/h 98 % 0.0 mm
09:07 7.4 °C 7.2 °C 1012.1 hPa South 13.7 km/h 20.1 km/h 98 % 0.0 mm
09:12 7.6 °C 7.3 °C 1012.1 hPa SSW 15.8 km/h 21.6 km/h 98 % 0.0 mm
09:17 7.7 °C 7.3 °C 1012.1 hPa SW 14.3 km/h 21.6 km/h 98 % 0.0 mm
09:22 7.7 °C 7.4 °C 1012.1 hPa SSW 11.9 km/h 21.6 km/h 98 % 0.0 mm
09:27 7.8 °C 7.6 °C 1012.1 hPa SSW 13.7 km/h 21.6 km/h 98 % 0.0 mm
09:32 7.9 °C 7.7 °C 1012.1 hPa SW 16.9 km/h 21.2 km/h 98 % 0.0 mm
09:37 8.1 °C 7.7 °C 1012.1 hPa South 16.9 km/h 21.2 km/h 98 % 0.0 mm
09:42 8.1 °C 7.8 °C 1012.1 hPa SSW 12.6 km/h 20.1 km/h 98 % 0.0 mm
09:48 8.2 °C 7.9 °C 1012.1 hPa WSW 16.6 km/h 20.1 km/h 98 % 0.0 mm
09:53 8.3 °C 8.1 °C 1012.1 hPa SSW 15.8 km/h 20.9 km/h 98 % 0.0 mm
09:58 8.5 °C 8.2 °C 1012.1 hPa WSW 12.2 km/h 20.9 km/h 98 % 0.0 mm
10:03 8.6 °C 8.3 °C 1012.1 hPa SSW 13.7 km/h 20.1 km/h 98 % 0.0 mm
10:08 8.7 °C 8.4 °C 1012.1 hPa WSW 16.9 km/h 20.1 km/h 98 % 0.0 mm
10:13 8.8 °C 8.5 °C 1012.1 hPa SW 16.9 km/h 20.1 km/h 98 % 0.0 mm
10:18 8.9 °C 8.6 °C 1012.1 hPa WSW 20.6 km/h 20.6 km/h 98 % 0.0 mm
10:23 9.0 °C 8.7 °C 1013.1 hPa SW 13.7 km/h 20.6 km/h 98 % 0.0 mm
10:28 9.0 °C 8.7 °C 1013.1 hPa SW 16.6 km/h 20.6 km/h 98 % 0.0 mm
10:33 9.1 °C 8.8 °C 1013.1 hPa SSW 12.2 km/h 17.2 km/h 98 % 0.0 mm
10:38 9.2 °C 8.9 °C 1013.1 hPa SW 9.0 km/h 17.2 km/h 98 % 0.0 mm
10:43 9.3 °C 9.0 °C 1013.1 hPa SW 12.2 km/h 17.2 km/h 98 % 0.0 mm
10:48 9.4 °C 9.1 °C 1013.1 hPa SW 12.2 km/h 18.0 km/h 98 % 0.0 mm
10:53 9.5 °C 9.2 °C 1013.1 hPa SSW 12.6 km/h 21.2 km/h 98 % 0.0 mm
10:58 9.6 °C 9.3 °C 1013.1 hPa SSW 11.9 km/h 21.2 km/h 98 % 0.0 mm
11:03 9.7 °C 9.4 °C 1013.1 hPa SSW 7.9 km/h 16.3 km/h 98 % 0.0 mm
11:08 9.8 °C 9.5 °C 1013.1 hPa SSW 11.6 km/h 17.2 km/h 98 % 0.0 mm
11:13 9.9 °C 9.6 °C 1013.1 hPa SSW 17.7 km/h 17.7 km/h 98 % 0.3 mm
11:18 10.1 °C 9.8 °C 1013.1 hPa WSW 19.8 km/h 20.1 km/h 98 % 0.3 mm
11:23 10.3 °C 10.0 °C 1013.1 hPa WSW 16.3 km/h 21.6 km/h 98 % 0.3 mm
11:28 10.4 °C 10.1 °C 1013.1 hPa WSW 13.0 km/h 21.6 km/h 98 % 0.3 mm
11:33 10.5 °C 10.2 °C 1013.1 hPa WSW 15.8 km/h 21.2 km/h 98 % 0.3 mm
11:38 10.6 °C 10.3 °C 1013.1 hPa WSW 12.2 km/h 20.6 km/h 98 % 0.3 mm
11:43 10.7 °C 10.4 °C 1013.1 hPa SW 12.6 km/h 16.9 km/h 98 % 0.3 mm
11:48 10.8 °C 10.5 °C 1013.1 hPa WSW 16.3 km/h 21.2 km/h 98 % 0.3 mm
11:53 10.9 °C 10.6 °C 1013.1 hPa WSW 13.7 km/h 21.2 km/h 98 % 0.3 mm
11:59 11.0 °C 10.5 °C 1013.1 hPa WSW 16.9 km/h 24.8 km/h 97 % 0.3 mm
12:03 11.1 °C 10.6 °C 1013.1 hPa WSW 16.3 km/h 24.8 km/h 97 % 0.3 mm
12:08 11.3 °C 10.8 °C 1013.1 hPa WSW 16.6 km/h 31.4 km/h 97 % 0.0 mm
12:13 11.4 °C 10.9 °C 1013.1 hPa WSW 21.2 km/h 31.4 km/h 97 % 0.0 mm
12:18 11.4 °C 10.9 °C 1013.1 hPa WSW 17.2 km/h 28.0 km/h 97 % 0.3 mm
12:23 11.4 °C 11.0 °C 1013.1 hPa WSW 21.6 km/h 28.0 km/h 97 % 0.3 mm
12:28 11.4 °C 11.0 °C 1013.1 hPa WSW 17.2 km/h 28.5 km/h 97 % 0.3 mm
12:33 11.6 °C 11.1 °C 1013.1 hPa WSW 20.6 km/h 28.5 km/h 97 % 0.3 mm
12:38 11.6 °C 11.1 °C 1012.1 hPa WSW 17.7 km/h 26.2 km/h 97 % 0.3 mm
12:43 11.6 °C 11.1 °C 1012.1 hPa WSW 27.7 km/h 27.7 km/h 97 % 0.3 mm
12:48 11.7 °C 11.2 °C 1012.1 hPa West 19.5 km/h 27.7 km/h 97 % 0.3 mm
12:53 11.8 °C 11.2 °C 1012.1 hPa West 24.5 km/h 36.7 km/h 96 % 0.3 mm
12:59 11.8 °C 11.2 °C 1012.1 hPa WSW 25.3 km/h 36.7 km/h 96 % 0.3 mm
13:04 11.8 °C 11.2 °C 1012.1 hPa West 16.3 km/h 36.4 km/h 96 % 0.3 mm
13:09 11.8 °C 11.2 °C 1012.1 hPa WSW 24.8 km/h 36.4 km/h 96 % 0.3 mm
13:14 11.8 °C 11.2 °C 1012.1 hPa WSW 23.8 km/h 29.1 km/h 96 % 0.0 mm
13:19 11.9 °C 11.3 °C 1012.1 hPa WSW 23.0 km/h 28.5 km/h 96 % 0.0 mm
13:24 11.8 °C 11.1 °C 1012.1 hPa West 22.4 km/h 37.0 km/h 95 % 0.3 mm
13:29 11.8 °C 11.1 °C 1012.1 hPa WSW 21.6 km/h 37.0 km/h 95 % 0.8 mm
13:34 11.8 °C 11.1 °C 1012.1 hPa WSW 20.9 km/h 29.9 km/h 95 % 1.0 mm
13:39 11.8 °C 11.1 °C 1011.1 hPa WSW 19.1 km/h 29.9 km/h 95 % 1.3 mm
13:44 11.9 °C 11.2 °C 1011.1 hPa WSW 23.8 km/h 36.4 km/h 95 % 1.3 mm
13:49 11.9 °C 11.2 °C 1011.1 hPa WSW 19.8 km/h 36.4 km/h 95 % 1.3 mm
13:54 11.9 °C 11.3 °C 1011.1 hPa WSW 24.8 km/h 35.2 km/h 96 % 1.3 mm
13:59 11.9 °C 11.3 °C 1011.1 hPa West 28.8 km/h 36.4 km/h 96 % 1.5 mm
14:04 12.1 °C 11.4 °C 1011.1 hPa WSW 28.5 km/h 39.3 km/h 96 % 1.5 mm
14:09 12.1 °C 11.4 °C 1012.1 hPa WSW 24.8 km/h 39.3 km/h 96 % 1.5 mm
14:14 12.2 °C 11.6 °C 1012.1 hPa SW 22.4 km/h 45.1 km/h 96 % 1.5 mm
14:19 12.2 °C 11.6 °C 1012.1 hPa WSW 32.0 km/h 45.1 km/h 96 % 1.5 mm
14:24 12.2 °C 11.6 °C 1011.1 hPa West 22.7 km/h 42.8 km/h 96 % 1.3 mm
14:29 12.2 °C 11.6 °C 1011.1 hPa West 28.5 km/h 37.8 km/h 96 % 0.8 mm
14:34 12.3 °C 11.7 °C 1011.1 hPa WSW 26.7 km/h 37.0 km/h 96 % 0.5 mm
14:39 12.3 °C 11.7 °C 1012.1 hPa West 31.4 km/h 44.6 km/h 96 % 0.3 mm
14:44 12.3 °C 11.6 °C 1012.1 hPa West 35.6 km/h 44.6 km/h 95 % 0.3 mm
14:49 12.3 °C 11.6 °C 1012.1 hPa WSW 30.2 km/h 43.9 km/h 95 % 0.3 mm
14:54 12.3 °C 11.6 °C 1012.1 hPa WSW 24.5 km/h 40.7 km/h 95 % 0.3 mm
14:59 12.3 °C 11.6 °C 1012.1 hPa West 33.5 km/h 40.4 km/h 95 % 0.0 mm
15:04 12.3 °C 11.6 °C 1012.1 hPa West 41.0 km/h 44.2 km/h 95 % 0.0 mm
15:09 12.3 °C 11.6 °C 1013.1 hPa SW 41.4 km/h 44.2 km/h 95 % 0.0 mm
15:14 12.3 °C 11.6 °C 1013.1 hPa West 33.8 km/h 43.9 km/h 95 % 0.0 mm
15:19 12.2 °C 11.5 °C 1013.1 hPa WNW 23.8 km/h 43.9 km/h 95 % 0.0 mm
15:24 12.2 °C 11.5 °C 1013.1 hPa WSW 21.9 km/h 40.4 km/h 95 % 0.0 mm
15:29 12.2 °C 11.4 °C 1013.1 hPa SW 30.6 km/h 38.5 km/h 95 % 0.0 mm
15:34 12.2 °C 11.6 °C 1013.1 hPa West 21.2 km/h 36.7 km/h 96 % 0.0 mm
15:39 12.1 °C 11.4 °C 1013.1 hPa West 28.5 km/h 38.9 km/h 96 % 0.0 mm
15:44 12.1 °C 11.4 °C 1013.1 hPa West 20.9 km/h 38.9 km/h 96 % 0.0 mm
15:49 12.1 °C 11.4 °C 1013.1 hPa West 30.2 km/h 36.0 km/h 96 % 0.0 mm
15:54 11.9 °C 11.3 °C 1013.1 hPa West 24.8 km/h 38.1 km/h 96 % 0.0 mm
15:59 11.9 °C 11.3 °C 1013.1 hPa West 27.7 km/h 38.9 km/h 96 % 0.0 mm
16:09 11.9 °C 11.3 °C 1013.1 hPa West 21.2 km/h 34.3 km/h 96 % 0.0 mm
16:14 11.8 °C 11.2 °C 1013.1 hPa West 22.4 km/h 38.5 km/h 96 % 0.0 mm
16:19 11.8 °C 11.2 °C 1013.1 hPa West 34.3 km/h 38.5 km/h 96 % 0.0 mm
16:24 11.8 °C 11.2 °C 1013.1 hPa WSW 31.7 km/h 38.1 km/h 96 % 0.0 mm
16:29 11.8 °C 11.2 °C 1013.1 hPa West 23.8 km/h 38.1 km/h 96 % 0.0 mm
16:34 11.8 °C 11.2 °C 1013.1 hPa West 13.7 km/h 42.2 km/h 96 % 0.0 mm
16:39 11.8 °C 11.2 °C 1013.1 hPa WSW 22.7 km/h 42.2 km/h 96 % 0.0 mm
16:44 11.8 °C 11.2 °C 1013.1 hPa WSW 28.0 km/h 42.5 km/h 96 % 0.0 mm
16:49 11.7 °C 11.1 °C 1013.1 hPa WSW 41.0 km/h 42.5 km/h 96 % 0.0 mm
16:50 11.7 °C 11.1 °C 1013.1 hPa West 37.8 km/h 42.5 km/h 96 % 0.0 mm
16:55 11.7 °C 11.1 °C 1013.1 hPa WSW 36.0 km/h 41.0 km/h 96 % 0.0 mm
17:00 11.7 °C 11.1 °C 1013.1 hPa WSW 35.6 km/h 40.7 km/h 96 % 0.0 mm
17:05 11.7 °C 11.1 °C 1013.1 hPa West 25.9 km/h 39.6 km/h 96 % 0.0 mm
17:10 11.7 °C 11.1 °C 1013.1 hPa WSW 24.8 km/h 39.3 km/h 96 % 0.0 mm
17:15 11.6 °C 10.9 °C 1013.1 hPa West 36.0 km/h 39.3 km/h 96 % 0.0 mm
17:20 11.7 °C 11.1 °C 1013.1 hPa West 16.6 km/h 43.9 km/h 96 % 0.0 mm
17:25 11.6 °C 10.9 °C 1013.1 hPa WSW 24.5 km/h 43.9 km/h 96 % 0.0 mm
17:30 11.6 °C 10.9 °C 1013.1 hPa West 26.7 km/h 36.7 km/h 96 % 0.0 mm
17:36 11.6 °C 10.9 °C 1013.1 hPa West 20.9 km/h 36.7 km/h 96 % 0.0 mm
17:41 11.6 °C 10.9 °C 1013.1 hPa West 23.3 km/h 35.2 km/h 96 % 0.0 mm
17:46 11.6 °C 10.9 °C 1013.1 hPa West 28.0 km/h 36.7 km/h 96 % 0.0 mm
17:51 11.6 °C 10.9 °C 1013.1 hPa West 28.8 km/h 36.7 km/h 96 % 0.0 mm
17:56 11.6 °C 10.9 °C 1013.1 hPa West 27.7 km/h 34.3 km/h 96 % 0.0 mm
18:01 11.6 °C 10.9 °C 1013.1 hPa West 32.8 km/h 32.8 km/h 96 % 0.0 mm
18:06 11.6 °C 10.9 °C 1013.1 hPa West 29.9 km/h 37.0 km/h 96 % 0.0 mm
18:10 11.6 °C 10.9 °C 1013.1 hPa West 27.7 km/h 37.5 km/h 96 % 0.0 mm
18:15 11.6 °C 10.9 °C 1013.1 hPa WSW 19.8 km/h 37.5 km/h 96 % 0.0 mm
18:21 11.6 °C 10.9 °C 1013.1 hPa West 28.0 km/h 37.5 km/h 96 % 0.0 mm
18:25 11.6 °C 10.9 °C 1013.1 hPa West 27.7 km/h 37.0 km/h 96 % 0.0 mm
18:31 11.6 °C 10.9 °C 1013.1 hPa West 29.1 km/h 40.7 km/h 96 % 0.0 mm
18:36 11.6 °C 10.9 °C 1013.1 hPa West 36.4 km/h 40.7 km/h 96 % 0.0 mm
18:37 11.6 °C 10.9 °C 1013.1 hPa West 23.8 km/h 38.5 km/h 96 % 0.0 mm
18:42 11.6 °C 10.9 °C 1014.1 hPa West 20.6 km/h 37.8 km/h 96 % 0.0 mm
18:47 11.4 °C 10.8 °C 1014.1 hPa WSW 28.5 km/h 36.7 km/h 96 % 0.0 mm
18:52 11.4 °C 10.8 °C 1014.1 hPa West 14.8 km/h 36.7 km/h 96 % 0.0 mm
18:57 11.4 °C 10.8 °C 1014.1 hPa West 23.8 km/h 36.7 km/h 96 % 0.0 mm
18:58 11.4 °C 10.8 °C 1014.1 hPa WSW 32.8 km/h 32.8 km/h 96 % 0.0 mm
19:03 11.4 °C 10.8 °C 1014.1 hPa West 23.8 km/h 32.8 km/h 96 % 0.0 mm
19:08 11.4 °C 10.8 °C 1014.1 hPa West 27.4 km/h 37.5 km/h 96 % 0.0 mm
19:13 11.4 °C 10.8 °C 1014.1 hPa WSW 24.5 km/h 37.5 km/h 96 % 0.0 mm
19:18 11.4 °C 10.8 °C 1014.1 hPa West 15.1 km/h 33.8 km/h 96 % 0.0 mm
19:23 11.4 °C 10.8 °C 1015.1 hPa WNW 23.8 km/h 33.8 km/h 96 % 0.0 mm
19:28 11.4 °C 10.8 °C 1015.1 hPa WSW 25.9 km/h 28.5 km/h 96 % 0.0 mm
19:33 11.4 °C 10.8 °C 1015.1 hPa WSW 24.8 km/h 30.6 km/h 96 % 0.0 mm
19:38 11.4 °C 10.8 °C 1015.1 hPa West 17.7 km/h 31.7 km/h 96 % 0.0 mm
19:43 11.3 °C 10.7 °C 1015.1 hPa West 25.9 km/h 31.7 km/h 96 % 0.0 mm
19:48 11.3 °C 10.7 °C 1015.1 hPa West 16.9 km/h 27.7 km/h 96 % 0.0 mm
19:53 11.2 °C 10.6 °C 1015.1 hPa West 6.9 km/h 27.4 km/h 96 % 0.0 mm
19:58 11.2 °C 10.6 °C 1015.1 hPa SSW 16.3 km/h 27.0 km/h 96 % 0.0 mm
20:03 11.2 °C 10.6 °C 1015.1 hPa West 17.2 km/h 27.0 km/h 96 % 0.0 mm
20:08 11.2 °C 10.6 °C 1015.1 hPa SW 17.2 km/h 22.4 km/h 96 % 0.0 mm
20:13 11.2 °C 10.6 °C 1015.1 hPa West 10.1 km/h 24.5 km/h 96 % 0.0 mm
20:18 11.2 °C 10.6 °C 1015.1 hPa NNW 13.7 km/h 24.5 km/h 96 % 0.0 mm
20:23 11.1 °C 10.4 °C 1014.1 hPa SW 10.1 km/h 21.2 km/h 96 % 0.0 mm
20:28 11.1 °C 10.4 °C 1014.1 hPa West 9.7 km/h 17.7 km/h 96 % 0.0 mm
20:33 11.1 °C 10.4 °C 1014.1 hPa West 14.8 km/h 17.2 km/h 96 % 0.0 mm
20:38 11.1 °C 10.4 °C 1015.1 hPa WSW 11.9 km/h 16.3 km/h 96 % 0.0 mm
20:43 11.1 °C 10.4 °C 1015.1 hPa West 11.9 km/h 16.9 km/h 96 % 0.3 mm
20:48 11.0 °C 10.4 °C 1015.1 hPa WSW 13.0 km/h 16.9 km/h 96 % 0.3 mm
20:53 11.0 °C 10.4 °C 1015.1 hPa West 9.0 km/h 15.4 km/h 96 % 0.5 mm
20:58 11.0 °C 10.4 °C 1015.1 hPa West 10.1 km/h 15.4 km/h 96 % 0.5 mm
21:03 11.0 °C 10.4 °C 1015.1 hPa WSW 5.8 km/h 16.9 km/h 96 % 0.5 mm
21:08 10.9 °C 10.3 °C 1015.1 hPa WSW 9.3 km/h 16.9 km/h 96 % 0.5 mm
21:13 10.9 °C 10.3 °C 1015.1 hPa West 6.1 km/h 13.7 km/h 96 % 0.8 mm
21:18 10.9 °C 10.3 °C 1015.1 hPa WSW 5.5 km/h 13.7 km/h 96 % 0.8 mm
21:23 10.9 °C 10.3 °C 1016.1 hPa West 9.7 km/h 11.6 km/h 96 % 0.8 mm
21:28 10.9 °C 10.3 °C 1016.1 hPa WSW 6.1 km/h 11.6 km/h 96 % 0.8 mm
21:33 10.8 °C 10.2 °C 1016.1 hPa West 9.7 km/h 10.8 km/h 96 % 0.8 mm
21:38 10.8 °C 10.2 °C 1016.1 hPa WSW 7.9 km/h 10.1 km/h 96 % 0.8 mm
21:43 10.8 °C 10.2 °C 1016.1 hPa West 4.7 km/h 10.1 km/h 96 % 1.0 mm
21:48 10.8 °C 10.2 °C 1016.1 hPa West 7.2 km/h 7.9 km/h 96 % 1.0 mm
21:53 10.8 °C 10.2 °C 1016.1 hPa Calm   7.9 km/h 96 % 0.8 mm
21:58 10.7 °C 10.1 °C 1016.1 hPa WSW 10.1 km/h 10.1 km/h 96 % 0.8 mm
22:03 10.7 °C 10.1 °C 1016.1 hPa WSW 6.9 km/h 10.1 km/h 96 % 0.8 mm
22:08 10.7 °C 10.1 °C 1016.1 hPa WSW 9.3 km/h 10.5 km/h 96 % 0.8 mm
22:13 10.7 °C 10.1 °C 1016.1 hPa WSW 9.7 km/h 13.0 km/h 96 % 0.3 mm
22:18 10.7 °C 10.1 °C 1016.1 hPa WSW 9.0 km/h 13.0 km/h 96 % 0.3 mm
22:23 10.7 °C 10.1 °C 1016.1 hPa West 9.3 km/h 10.5 km/h 96 % 0.3 mm
22:28 10.7 °C 10.1 °C 1016.1 hPa West 6.1 km/h 10.5 km/h 96 % 0.3 mm
22:33 10.7 °C 10.1 °C 1016.1 hPa West 10.8 km/h 10.8 km/h 96 % 0.3 mm
22:38 10.7 °C 10.1 °C 1016.1 hPa WSW 6.9 km/h 10.8 km/h 96 % 0.3 mm
22:43 10.7 °C 10.1 °C 1016.1 hPa WSW 5.8 km/h 10.5 km/h 96 % 0.0 mm
22:48 10.7 °C 10.1 °C 1016.1 hPa WSW 6.4 km/h 10.1 km/h 96 % 0.0 mm
22:53 10.6 °C 10.0 °C 1016.1 hPa WSW 7.9 km/h 10.1 km/h 96 % 0.0 mm
22:58 10.6 °C 10.0 °C 1016.1 hPa Calm   9.0 km/h 96 % 0.0 mm
23:03 10.6 °C 10.0 °C 1016.1 hPa West 7.2 km/h 9.3 km/h 96 % 0.0 mm
23:08 10.6 °C 10.0 °C 1016.8 hPa WSW 9.7 km/h 10.5 km/h 96 % 0.0 mm
23:13 10.6 °C 10.0 °C 1016.8 hPa West 9.3 km/h 10.5 km/h 96 % 0.0 mm
23:18 10.6 °C 10.0 °C 1016.8 hPa WSW 9.0 km/h 11.6 km/h 96 % 0.0 mm
23:23 10.6 °C 10.0 °C 1016.1 hPa WSW 16.3 km/h 16.9 km/h 96 % 0.0 mm
23:28 10.6 °C 10.0 °C 1016.1 hPa WSW 15.8 km/h 16.9 km/h 96 % 0.0 mm
23:33 10.6 °C 10.0 °C 1016.1 hPa WSW 15.8 km/h 17.7 km/h 96 % 0.0 mm
23:38 10.7 °C 10.1 °C 1016.1 hPa West 13.0 km/h 17.7 km/h 96 % 0.0 mm
23:43 10.7 °C 10.1 °C 1016.1 hPa West 16.3 km/h 16.9 km/h 96 % 0.0 mm
23:48 10.7 °C 10.1 °C 1016.1 hPa WSW 9.0 km/h 16.9 km/h 96 % 0.0 mm
23:53 10.7 °C 10.1 °C 1016.1 hPa West 9.0 km/h 16.3 km/h 96 % 0.0 mm
23:58 10.7 °C 10.1 °C 1016.1 hPa West 14.0 km/h 16.6 km/h 96 % 0.0 mm
Le Gheer Warneton
Courtoisie de Weather Underground - 2.25 mb

Mise a jour : 17-12-17 08:47:12
Généré par Cumulus 1.9.4 (1099)